Time;durP1;ratioP1;P1;durP2;ratioP2;P2;SDS_P1;SDS_P2;PMS_P1;PMS_P2;Temp;Humidity;BMP_temperature;BMP_pressure;BME280_temperature;BME280_humidity;BME280_pressure;Samples;Min_cycle;Max_cycle;Signal;HPM_P1;HPM_P2
2022/04/12 00:00:01;;;;;;;7.82;6.13;;;;;;;9.35;44.80;100704.94;689614;28;1191;-86
2022/04/12 00:00:21;;;;;;;8.15;6.32;;;;;;;9.30;44.26;100697.88;695817;28;1252;-86
2022/04/12 00:00:43;;;;;;;8.63;6.53;;;;;;;9.30;44.50;100705.69;690505;28;1157;-86
2022/04/12 00:01:05;;;;;;;10.05;6.82;;;;;;;9.35;44.70;100712.75;692986;28;1346;-86
2022/04/12 00:01:26;;;;;;;10.55;6.68;;;;;;;9.28;44.90;100707.34;687736;28;1328;-86
2022/04/12 00:01:47;;;;;;;7.53;6.20;;;;;;;9.21;44.79;100700.16;687516;28;1303;-86
2022/04/12 00:02:07;;;;;;;7.57;6.10;;;;;;;9.23;44.61;100708.03;687710;28;1336;-86
2022/04/12 00:02:28;;;;;;;8.15;6.22;;;;;;;9.18;45.22;100694.88;687800;28;1240;-86
2022/04/12 00:02:48;;;;;;;8.73;6.27;;;;;;;9.22;45.13;100704.53;692238;28;1456;-86
2022/04/12 00:03:10;;;;;;;7.85;6.15;;;;;;;9.17;45.02;100700.94;693201;28;1048;-87
2022/04/12 00:03:30;;;;;;;7.40;6.30;;;;;;;9.15;44.91;100690.44;687674;28;1220;-86
2022/04/12 00:03:51;;;;;;;7.30;6.20;;;;;;;9.14;44.62;100688.69;687834;28;1017;-86
2022/04/12 00:04:12;;;;;;;6.75;5.97;;;;;;;9.21;44.70;100699.31;687719;28;1071;-86
2022/04/12 00:04:32;;;;;;;6.28;5.68;;;;;;;9.22;44.84;100707.13;690508;28;1321;-88
2022/04/12 00:04:54;;;;;;;6.60;5.90;;;;;;;9.19;45.01;100699.25;687753;28;1104;-87
2022/04/12 00:05:14;;;;;;;7.45;5.88;;;;;;;9.20;44.73;100705.34;693184;28;1416;-87
2022/04/12 00:05:37;;;;;;;7.43;6.03;;;;;;;9.06;45.30;100684.94;690306;28;1556;-86
2022/04/12 00:05:57;;;;;;;6.90;5.70;;;;;;;8.98;44.92;100689.00;690313;28;1130;-85
2022/04/12 00:06:18;;;;;;;6.93;6.03;;;;;;;9.05;45.21;100704.88;693225;28;939;-86
2022/04/12 00:06:38;;;;;;;7.23;6.23;;;;;;;9.07;44.86;100696.25;690616;28;937;-86
2022/04/12 00:06:59;;;;;;;7.97;6.68;;;;;;;9.04;45.34;100686.63;691407;28;1139;-86
2022/04/12 00:07:20;;;;;;;8.60;6.50;;;;;;;9.10;44.83;100696.34;689734;28;1312;-86
2022/04/12 00:07:42;;;;;;;9.10;6.40;;;;;;;9.09;45.03;100705.00;690472;28;1374;-86
2022/04/12 00:08:04;;;;;;;8.75;6.38;;;;;;;9.09;45.17;100702.38;690285;28;1134;-86
2022/04/12 00:08:25;;;;;;;9.30;6.50;;;;;;;8.99;45.18;100691.69;685025;28;1213;-86
2022/04/12 00:08:46;;;;;;;10.05;6.30;;;;;;;9.00;45.17;100693.44;692217;28;1310;-86
2022/04/12 00:09:06;;;;;;;11.00;6.00;;;;;;;9.02;45.17;100694.38;692053;28;1140;-86
2022/04/12 00:09:27;;;;;;;11.25;6.30;;;;;;;9.05;45.34;100694.47;692901;28;1077;-86
2022/04/12 00:09:49;;;;;;;10.70;6.50;;;;;;;9.01;45.17;100687.41;689962;28;1379;-86
2022/04/12 00:10:11;;;;;;;8.57;6.78;;;;;;;9.01;45.13;100684.78;690318;28;1347;-86
2022/04/12 00:10:32;;;;;;;8.35;6.45;;;;;;;9.01;45.15;100691.72;687749;28;1018;-85
2022/04/12 00:10:53;;;;;;;8.88;6.65;;;;;;;9.02;45.53;100688.25;687997;28;1020;-85
2022/04/12 00:11:14;;;;;;;9.02;6.50;;;;;;;8.94;45.27;100674.13;687635;28;1273;-86
2022/04/12 00:11:35;;;;;;;8.10;6.30;;;;;;;9.04;45.53;100695.31;690377;28;1793;-86
2022/04/12 00:11:55;;;;;;;8.40;6.20;;;;;;;8.94;45.55;100675.00;687564;28;1165;-87
2022/04/12 00:12:16;;;;;;;8.70;6.40;;;;;;;8.87;45.42;100675.66;687641;28;1157;-86
2022/04/12 00:12:37;;;;;;;8.23;6.40;;;;;;;8.95;45.51;100697.59;685055;28;1225;-85
2022/04/12 00:13:00;;;;;;;7.47;6.50;;;;;;;8.89;45.72;100674.88;687626;28;1279;-86
2022/04/12 00:13:20;;;;;;;7.55;6.30;;;;;;;8.96;45.55;100688.94;687819;28;1119;-87
2022/04/12 00:13:41;;;;;;;9.18;6.40;;;;;;;8.97;45.71;100680.31;687897;28;803;-86
2022/04/12 00:14:01;;;;;;;9.40;6.47;;;;;;;8.98;45.30;100684.69;684451;28;1185;-87
2022/04/12 00:14:22;;;;;;;8.65;6.40;;;;;;;9.02;45.41;100688.25;682895;28;1343;-87
2022/04/12 00:14:43;;;;;;;7.68;6.30;;;;;;;8.99;45.28;100683.88;684930;28;1229;-86
2022/04/12 00:15:05;;;;;;;7.57;6.33;;;;;;;8.99;45.07;100682.97;690187;28;1154;-86
2022/04/12 00:15:26;;;;;;;6.88;6.05;;;;;;;8.91;45.72;100669.72;690350;28;1093;-86
2022/04/12 00:15:48;;;;;;;7.72;6.10;;;;;;;8.93;45.17;100677.56;687563;28;1542;-84
2022/04/12 00:16:09;;;;;;;8.32;6.40;;;;;;;8.89;45.30;100671.38;692976;28;1111;-87
2022/04/12 00:16:30;;;;;;;8.82;6.50;;;;;;;8.95;45.29;100689.78;695503;28;1914;-86
2022/04/12 00:19:02;;;;;;;7.80;6.45;;;;;;;8.97;45.19;100685.50;690914;28;1214;-86
2022/04/12 00:19:06;;;;;;;11.48;6.70;;;;;;;8.93;45.19;100682.75;693241;28;1215;-86
2022/04/12 00:19:26;;;;;;;8.80;6.80;;;;;;;8.87;45.55;100675.66;692139;28;1047;-85
2022/04/12 00:19:47;;;;;;;8.40;6.90;;;;;;;8.87;45.43;100679.13;692531;28;1230;-86
2022/04/12 00:20:08;;;;;;;7.30;6.50;;;;;;;8.84;45.39;100670.34;692666;28;1161;-87
2022/04/12 00:20:29;;;;;;;7.28;6.32;;;;;;;8.86;45.48;100671.28;690413;28;891;-85
2022/04/12 00:20:53;;;;;;;7.53;6.40;;;;;;;8.91;45.60;100683.59;692816;28;1745;-86
2022/04/12 00:21:14;;;;;;;7.50;6.60;;;;;;;8.83;45.15;100661.63;695942;28;1053;-86
2022/04/12 00:21:35;;;;;;;7.80;6.87;;;;;;;8.82;45.35;100662.47;687329;28;1216;-86
2022/04/12 00:21:56;;;;;;;7.50;6.70;;;;;;;8.84;45.27;100667.75;691293;28;1183;-86
2022/04/12 00:22:16;;;;;;;8.30;6.35;;;;;;;8.85;45.62;100669.50;693150;28;1285;-86
2022/04/12 00:22:39;;;;;;;8.30;6.10;;;;;;;8.93;45.54;100680.16;695795;28;999;-86
2022/04/12 00:23:00;;;;;;;8.40;6.40;;;;;;;8.78;45.53;100671.00;693046;28;1116;-86
2022/04/12 00:23:20;;;;;;;7.10;6.40;;;;;;;8.80;45.78;100682.38;692979;28;1095;-86
2022/04/12 00:23:41;;;;;;;7.18;6.47;;;;;;;8.75;45.65;100669.19;687670;28;1715;-86
2022/04/12 00:24:04;;;;;;;7.50;6.70;;;;;;;8.83;45.90;100676.38;689799;28;1140;-86
2022/04/12 00:24:24;;;;;;;8.77;6.97;;;;;;;8.82;45.76;100687.59;693021;28;1259;-86
2022/04/12 00:24:45;;;;;;;8.90;7.25;;;;;;;8.77;45.98;100671.84;687674;28;1236;-86
2022/04/12 00:25:09;;;;;;;8.77;6.97;;;;;;;8.73;45.55;100676.06;690368;28;1126;-86
2022/04/12 00:25:30;;;;;;;8.35;6.72;;;;;;;8.76;45.68;100683.09;684907;28;1373;-86
2022/04/12 00:25:53;;;;;;;8.30;6.25;;;;;;;8.73;46.15;100681.25;682962;28;1347;-86
2022/04/12 00:26:13;;;;;;;8.80;6.47;;;;;;;8.68;46.00;100675.03;690287;28;1377;-86
2022/04/12 00:26:34;;;;;;;8.38;6.90;;;;;;;8.77;45.99;100688.34;690405;28;1213;-85
2022/04/12 00:27:07;;;;;;;7.88;6.90;;;;;;;8.65;45.77;100668.84;693002;28;1273;-85
2022/04/12 00:27:27;;;;;;;8.88;6.88;;;;;;;8.72;45.64;100681.22;684520;28;1522;-86
2022/04/12 00:27:53;;;;;;;10.60;7.03;;;;;;;8.64;45.39;100667.94;688828;28;1555;-85
2022/04/12 00:28:22;;;;;;;10.13;6.80;;;;;;;8.70;46.11;100680.25;690323;28;1289;-86
2022/04/12 00:28:43;;;;;;;8.95;7.10;;;;;;;8.68;46.04;100676.72;689899;28;1474;-86
2022/04/12 00:29:03;;;;;;;9.00;7.07;;;;;;;8.67;46.02;100670.66;692869;28;1123;-87
2022/04/12 00:29:24;;;;;;;8.68;6.72;;;;;;;8.69;46.31;100682.00;690795;28;1270;-86
2022/04/12 00:29:44;;;;;;;8.90;6.70;;;;;;;8.62;45.87;100669.63;687326;28;815;-86
2022/04/12 00:30:07;;;;;;;8.70;6.85;;;;;;;8.59;45.99;100672.94;684477;28;1334;-86
2022/04/12 00:30:28;;;;;;;7.90;6.60;;;;;;;8.58;46.23;100671.19;685053;28;1045;-86
2022/04/12 00:30:49;;;;;;;8.57;6.68;;;;;;;8.65;46.02;100681.84;684752;28;1258;-86
2022/04/12 00:31:10;;;;;;;8.67;6.70;;;;;;;8.62;46.01;100677.41;690278;28;1333;-84
2022/04/12 00:31:31;;;;;;;8.18;6.95;;;;;;;8.57;46.20;100677.22;687744;28;1071;-86
2022/04/12 00:31:51;;;;;;;8.02;7.00;;;;;;;8.52;46.28;100664.91;683004;28;1179;-86
2022/04/12 00:32:12;;;;;;;9.00;7.10;;;;;;;8.53;46.31;100669.25;690488;28;1059;-86
2022/04/12 00:32:33;;;;;;;9.13;7.00;;;;;;;8.57;46.24;100674.63;692023;28;1243;-86
2022/04/12 00:32:53;;;;;;;9.10;6.90;;;;;;;8.60;46.39;100679.06;692208;28;1261;-86
2022/04/12 00:33:15;;;;;;;9.57;6.80;;;;;;;8.51;46.36;100671.81;687380;28;1233;-86
2022/04/12 00:33:35;;;;;;;8.85;6.45;;;;;;;8.50;46.49;100670.03;687426;28;1351;-86
2022/04/12 00:33:56;;;;;;;8.77;6.50;;;;;;;8.54;46.19;100673.63;684996;28;1356;-86
2022/04/12 00:34:17;;;;;;;7.33;6.17;;;;;;;8.43;46.12;100658.53;687762;28;1111;-84
2022/04/12 00:34:37;;;;;;;8.00;6.50;;;;;;;8.46;46.61;100670.75;690251;28;1297;-85
2022/04/12 00:34:58;;;;;;;8.60;6.50;;;;;;;8.40;46.58;100661.03;690246;28;1212;-86
2022/04/12 00:35:21;;;;;;;9.38;7.07;;;;;;;8.42;46.48;100663.69;690472;28;1055;-86
2022/04/12 00:35:41;;;;;;;9.50;7.10;;;;;;;8.48;46.23;100671.72;691194;28;1665;-86
2022/04/12 00:36:04;;;;;;;8.73;6.88;;;;;;;8.51;46.32;100679.59;687021;28;1160;-86
2022/04/12 00:36:25;;;;;;;8.60;6.53;;;;;;;8.36;46.32;100664.34;695698;28;1910;-85
2022/04/12 00:36:45;;;;;;;7.63;6.03;;;;;;;8.36;46.45;100673.03;695925;28;812;-87
2022/04/12 00:37:06;;;;;;;8.25;6.10;;;;;;;8.37;46.68;100671.31;693125;28;1084;-87
2022/04/12 00:37:26;;;;;;;8.10;6.30;;;;;;;8.35;46.45;100670.38;690295;28;1254;-86
2022/04/12 00:37:47;;;;;;;9.50;6.60;;;;;;;8.44;46.82;100675.03;690445;28;1213;-86
2022/04/12 00:38:23;;;;;;;9.02;6.60;;;;;;;8.34;46.77;100659.09;687863;28;1189;-86
2022/04/12 00:38:44;;;;;;;10.30;6.95;;;;;;;8.36;46.45;100654.81;690541;28;767;-86
2022/04/12 00:39:04;;;;;;;9.63;6.95;;;;;;;8.40;46.74;100666.22;682180;28;1292;-86
2022/04/12 00:39:25;;;;;;;7.17;6.47;;;;;;;8.42;46.31;100668.88;690058;28;1258;-85
2022/04/12 00:39:46;;;;;;;8.35;6.65;;;;;;;8.37;46.17;100663.53;692093;28;1179;-85
2022/04/12 00:40:07;;;;;;;11.05;6.80;;;;;;;8.38;46.42;100665.28;684924;28;1196;-86
2022/04/12 00:40:28;;;;;;;11.68;7.10;;;;;;;8.38;46.57;100667.00;683336;28;2688;-86
2022/04/12 00:40:50;;;;;;;11.67;7.27;;;;;;;8.44;46.62;100675.91;690129;28;1417;-86
2022/04/12 00:41:11;;;;;;;12.20;7.13;;;;;;;8.39;46.44;100667.06;690109;28;2493;-86
2022/04/12 00:41:35;;;;;;;12.48;7.05;;;;;;;8.38;46.52;100667.00;691303;28;1276;-86
2022/04/12 00:41:57;;;;;;;11.90;7.43;;;;;;;8.36;46.86;100664.34;687293;28;1160;-86
2022/04/12 00:42:17;;;;;;;9.10;7.13;;;;;;;8.38;46.50;100664.38;691327;28;1074;-86
2022/04/12 00:42:38;;;;;;;8.13;6.78;;;;;;;8.39;46.58;100680.06;690272;28;911;-85
2022/04/12 00:43:03;;;;;;;8.00;6.50;;;;;;;8.43;46.92;100681.94;689286;28;1079;-86
2022/04/12 00:43:27;;;;;;;8.63;6.60;;;;;;;8.39;46.64;100673.97;682263;29;1254;-86
2022/04/12 00:43:47;;;;;;;9.77;6.90;;;;;;;8.36;46.83;100670.44;687890;28;1033;-86
2022/04/12 00:44:14;;;;;;;10.00;7.00;;;;;;;8.35;46.45;100659.97;695906;28;1036;-86
2022/04/12 00:44:34;;;;;;;8.82;6.85;;;;;;;8.29;46.44;100655.44;695794;28;1107;-86
2022/04/12 00:44:55;;;;;;;8.97;7.40;;;;;;;8.32;46.78;100663.38;693333;28;1089;-86
2022/04/12 00:45:15;;;;;;;9.30;7.47;;;;;;;8.34;46.58;100673.78;690277;28;1156;-86
2022/04/12 00:45:36;;;;;;;9.60;7.10;;;;;;;8.28;46.81;100660.59;695610;28;1464;-86
2022/04/12 00:46:00;;;;;;;8.90;6.50;;;;;;;8.21;46.63;100647.38;696555;28;1447;-86
2022/04/12 00:46:20;;;;;;;9.57;6.50;;;;;;;8.26;46.80;100659.63;690146;28;1518;-86
2022/04/12 00:46:41;;;;;;;9.13;6.75;;;;;;;8.27;46.95;100666.59;687746;28;812;-86
2022/04/12 00:47:02;;;;;;;8.97;6.93;;;;;;;8.31;46.85;100676.31;682331;29;1168;-86
2022/04/12 00:47:23;;;;;;;8.45;7.15;;;;;;;8.28;46.68;100671.00;684503;28;1116;-86
2022/04/12 00:47:44;;;;;;;8.23;7.32;;;;;;;8.26;46.96;100662.25;690339;28;1084;-86
2022/04/12 00:48:04;;;;;;;9.73;7.55;;;;;;;8.26;46.99;100662.25;684887;28;1200;-86
2022/04/12 00:48:28;;;;;;;9.63;7.30;;;;;;;8.30;46.98;100664.13;690212;28;1183;-86
2022/04/12 00:48:49;;;;;;;9.57;7.03;;;;;;;8.25;46.75;100665.66;690753;28;1253;-86
2022/04/12 00:49:10;;;;;;;7.83;6.70;;;;;;;8.31;46.95;100677.19;690416;28;1001;-86
2022/04/12 00:49:30;;;;;;;8.10;6.63;;;;;;;8.31;46.70;100672.00;684478;28;1048;-86
2022/04/12 00:49:51;;;;;;;8.80;7.10;;;;;;;8.23;46.74;100663.91;684691;28;1383;-86
2022/04/12 00:50:13;;;;;;;9.38;7.53;;;;;;;8.33;46.97;100672.03;687795;28;965;-87
2022/04/12 00:50:33;;;;;;;12.52;7.57;;;;;;;8.25;46.78;100660.47;690290;28;1323;-86
2022/04/12 00:50:54;;;;;;;13.27;7.37;;;;;;;8.25;46.66;100658.78;690256;28;1655;-86
2022/04/12 00:51:15;;;;;;;12.93;7.40;;;;;;;8.35;46.71;100675.56;690230;28;1379;-86
2022/04/12 00:51:35;;;;;;;11.07;7.27;;;;;;;8.29;46.61;100657.16;692279;28;1178;-86
2022/04/12 00:51:58;;;;;;;10.15;7.38;;;;;;;8.26;46.90;100659.63;691958;28;1175;-86
2022/04/12 00:52:19;;;;;;;8.18;6.95;;;;;;;8.31;46.94;100668.50;693224;28;962;-86
2022/04/12 00:52:42;;;;;;;9.20;6.88;;;;;;;8.33;46.95;100664.22;693078;28;760;-86
2022/04/12 00:53:03;;;;;;;8.70;6.60;;;;;;;8.31;46.97;100664.19;694732;28;1185;-86
2022/04/12 00:53:26;;;;;;;7.50;6.60;;;;;;;8.28;47.07;100658.88;691145;28;1670;-86
2022/04/12 00:53:48;;;;;;;7.60;6.80;;;;;;;8.27;46.97;100664.91;686472;28;1238;-86
2022/04/12 00:54:09;;;;;;;8.27;6.72;;;;;;;8.34;46.89;100671.19;690463;28;989;-86
2022/04/12 00:54:33;;;;;;;9.60;7.00;;;;;;;8.29;46.73;100662.38;684752;28;1169;-85
2022/04/12 00:54:54;;;;;;;9.50;6.80;;;;;;;8.23;47.25;100653.50;687494;28;1234;-86
2022/04/12 00:55:15;;;;;;;9.10;6.60;;;;;;;8.28;46.57;100664.06;690482;28;985;-86
2022/04/12 00:55:36;;;;;;;8.60;6.43;;;;;;;8.29;46.49;100665.84;690352;28;907;-86
2022/04/12 00:55:57;;;;;;;9.10;6.50;;;;;;;8.23;46.86;100658.72;689116;28;1187;-86
2022/04/12 00:56:18;;;;;;;9.80;6.80;;;;;;;8.23;46.51;100650.00;693262;28;2024;-85
2022/04/12 00:56:38;;;;;;;9.48;6.60;;;;;;;8.24;46.95;100657.00;691090;28;1685;-86
2022/04/12 00:56:59;;;;;;;10.10;7.20;;;;;;;8.19;47.14;100645.53;691164;28;1138;-86
2022/04/12 00:57:20;;;;;;;9.37;7.30;;;;;;;8.21;46.74;100655.19;687695;28;1181;-86
2022/04/12 00:57:41;;;;;;;10.48;7.82;;;;;;;8.18;47.07;100646.38;687702;28;779;-86
2022/04/12 00:58:07;;;;;;;9.63;7.20;;;;;;;8.32;46.57;100673.75;689111;28;1240;-86
2022/04/12 00:58:28;;;;;;;8.68;6.60;;;;;;;8.30;46.82;100664.13;690364;28;973;-85
2022/04/12 00:58:49;;;;;;;8.38;6.65;;;;;;;8.23;46.45;100647.41;689445;28;1250;-86
2022/04/12 00:59:11;;;;;;;8.70;6.90;;;;;;;8.25;47.03;100644.88;692787;28;1144;-86
2022/04/12 00:59:32;;;;;;;8.88;7.38;;;;;;;8.27;46.80;100653.59;689815;28;1208;-86
2022/04/12 00:59:54;;;;;;;9.32;7.32;;;;;;;8.22;46.81;100646.53;694460;28;1498;-86
2022/04/12 01:00:18;;;;;;;9.60;7.30;;;;;;;8.22;46.88;100651.75;694696;28;999;-87
2022/04/12 01:00:38;;;;;;;9.35;7.03;;;;;;;8.32;46.70;100657.25;687568;28;1117;-86
2022/04/12 01:00:59;;;;;;;7.25;6.30;;;;;;;8.23;46.82;100645.72;684606;28;1307;-86
2022/04/12 01:01:20;;;;;;;7.50;6.17;;;;;;;8.29;46.58;100654.56;685070;28;1092;-86
2022/04/12 01:01:41;;;;;;;8.05;6.40;;;;;;;8.31;47.15;100655.50;687836;28;1290;-86
2022/04/12 01:02:03;;;;;;;9.05;6.70;;;;;;;8.33;46.77;100644.34;683275;28;1152;-86
2022/04/12 01:02:24;;;;;;;11.13;7.13;;;;;;;8.31;46.99;100655.50;688176;28;1220;-86
2022/04/12 01:02:45;;;;;;;11.10;7.07;;;;;;;8.30;46.96;100651.13;692966;28;891;-86
2022/04/12 01:03:06;;;;;;;9.57;6.90;;;;;;;8.34;47.05;100651.28;690940;28;1066;-86
2022/04/12 01:03:26;;;;;;;9.23;6.90;;;;;;;8.32;46.78;100659.88;688270;28;1086;-86
2022/04/12 01:03:47;;;;;;;9.75;7.00;;;;;;;8.33;47.04;100654.72;690404;28;1532;-85
2022/04/12 01:04:08;;;;;;;11.97;6.80;;;;;;;8.32;46.88;100662.47;688268;28;1097;-86
2022/04/12 01:04:29;;;;;;;10.30;6.50;;;;;;;8.30;46.89;100658.94;680133;28;1334;-86
2022/04/12 01:04:49;;;;;;;9.67;6.40;;;;;;;8.29;47.05;100649.38;683271;28;1234;-86
2022/04/12 01:05:10;;;;;;;7.47;6.50;;;;;;;8.26;46.85;100651.84;685488;28;1061;-86
2022/04/12 01:05:32;;;;;;;7.35;6.40;;;;;;;8.22;46.74;100640.44;685405;28;1252;-85
2022/04/12 01:05:53;;;;;;;7.10;6.38;;;;;;;8.22;46.89;100641.34;690599;28;1460;-86
2022/04/12 01:06:13;;;;;;;7.13;6.22;;;;;;;8.27;46.86;100651.00;696299;28;1124;-86
2022/04/12 01:06:34;;;;;;;8.30;6.17;;;;;;;8.29;47.00;100652.84;687987;28;1167;-86
2022/04/12 01:06:55;;;;;;;7.82;6.00;;;;;;;8.18;47.09;100642.06;694786;28;1346;-86
2022/04/12 01:07:16;;;;;;;7.70;6.10;;;;;;;8.25;46.91;100652.69;688428;28;977;-86
2022/04/12 01:07:37;;;;;;;7.70;6.85;;;;;;;8.18;46.80;100639.44;693589;28;969;-85
2022/04/12 01:07:58;;;;;;;9.73;7.20;;;;;;;8.29;47.00;100654.56;690779;28;1218;-86
2022/04/12 01:08:18;;;;;;;9.90;7.18;;;;;;;8.23;46.91;100648.31;693669;28;1184;-86
2022/04/12 01:08:39;;;;;;;10.27;6.78;;;;;;;8.25;46.93;100656.19;685563;28;1188;-85
2022/04/12 01:08:59;;;;;;;9.63;6.63;;;;;;;8.14;46.97;100636.69;685557;28;1904;-86
2022/04/12 01:09:21;;;;;;;9.68;6.70;;;;;;;8.13;47.19;100641.03;688124;28;1028;-86
2022/04/12 01:09:41;;;;;;;9.75;7.07;;;;;;;8.15;46.97;100638.47;687623;28;1217;-86
2022/04/12 01:10:06;;;;;;;9.07;7.03;;;;;;;8.12;46.88;100639.25;687994;28;1264;-86
2022/04/12 01:10:26;;;;;;;8.85;6.97;;;;;;;8.18;47.19;100655.06;688173;28;1269;-86
2022/04/12 01:10:48;;;;;;;9.03;7.13;;;;;;;8.16;47.22;100651.53;688068;28;1184;-86
2022/04/12 01:11:09;;;;;;;8.95;7.00;;;;;;;8.14;47.46;100650.59;693396;28;1440;-86
2022/04/12 01:11:29;;;;;;;9.13;7.03;;;;;;;8.07;47.38;100646.00;690900;28;866;-86
2022/04/12 01:11:51;;;;;;;9.48;6.75;;;;;;;8.10;47.31;100648.69;690908;28;1083;-86
2022/04/12 01:12:12;;;;;;;8.27;6.22;;;;;;;8.07;47.25;100643.41;685454;28;1093;-86
2022/04/12 01:12:41;;;;;;;8.38;6.40;;;;;;;8.02;47.15;100640.63;690729;28;1206;-85
2022/04/12 01:13:02;;;;;;;9.05;6.78;;;;;;;8.08;47.13;100651.25;692895;28;1802;-86
2022/04/12 01:13:22;;;;;;;8.20;6.53;;;;;;;8.03;47.35;100644.09;690316;28;1570;-86
2022/04/12 01:13:43;;;;;;;8.10;6.43;;;;;;;8.05;47.55;100648.53;685430;28;1189;-86
2022/04/12 01:14:03;;;;;;;8.50;6.50;;;;;;;8.08;47.19;100656.47;693318;28;1345;-86
2022/04/12 01:14:25;;;;;;;8.55;6.40;;;;;;;8.05;47.49;100647.66;693577;28;900;-85
2022/04/12 01:14:46;;;;;;;8.85;6.60;;;;;;;7.97;47.42;100630.91;693169;28;1656;-86
2022/04/12 01:15:16;;;;;;;8.00;6.40;;;;;;;8.08;47.32;100652.97;688028;28;1164;-86
2022/04/12 01:15:37;;;;;;;7.90;6.50;;;;;;;8.08;47.58;100660.75;687844;28;1259;-86
2022/04/12 01:15:57;;;;;;;8.38;6.70;;;;;;;7.98;47.78;100638.72;683883;28;1096;-86
2022/04/12 01:16:18;;;;;;;9.63;6.80;;;;;;;8.00;47.56;100652.69;680113;29;2329;-85
2022/04/12 01:16:39;;;;;;;9.27;6.47;;;;;;;8.03;47.32;100649.28;682893;29;938;-86
2022/04/12 01:17:03;;;;;;;8.05;6.22;;;;;;;7.94;47.03;100632.53;684512;28;1251;-86
2022/04/12 01:17:36;;;;;;;7.60;6.50;;;;;;;8.03;47.50;100650.19;690842;28;1208;-86
2022/04/12 01:17:57;;;;;;;8.85;7.18;;;;;;;7.92;47.43;100636.81;692230;28;1458;-86
2022/04/12 01:18:18;;;;;;;9.13;7.28;;;;;;;7.94;47.34;100642.06;693647;28;1163;-86
2022/04/12 01:18:40;;;;;;;8.60;6.80;;;;;;;7.97;47.34;100644.75;693446;28;1166;-85
2022/04/12 01:19:00;;;;;;;8.27;6.47;;;;;;;7.89;47.45;100636.69;687838;28;1433;-86
2022/04/12 01:19:21;;;;;;;9.05;6.80;;;;;;;7.96;47.34;100648.19;685346;28;1170;-87
2022/04/12 01:19:41;;;;;;;10.40;6.80;;;;;;;7.94;47.46;100642.06;689739;28;1148;-86
2022/04/12 01:20:02;;;;;;;12.88;7.07;;;;;;;8.03;47.38;100651.91;691046;28;1678;-86
2022/04/12 01:20:25;;;;;;;13.90;6.72;;;;;;;7.96;47.45;100648.19;685256;28;1079;-86
2022/04/12 01:20:46;;;;;;;11.45;6.57;;;;;;;7.95;47.35;100638.63;687757;28;1298;-86
2022/04/12 01:21:06;;;;;;;8.50;6.40;;;;;;;7.98;47.51;100645.66;688090;28;931;-86
2022/04/12 01:21:32;;;;;;;8.25;6.90;;;;;;;7.95;47.59;100631.75;688195;28;1214;-85
2022/04/12 01:22:00;;;;;;;8.73;6.65;;;;;;;7.97;47.51;100630.91;687345;28;1201;-86
2022/04/12 01:22:24;;;;;;;8.27;6.40;;;;;;;7.95;47.54;100633.44;688090;28;1015;-85
2022/04/12 01:22:55;;;;;;;9.02;6.65;;;;;;;8.04;47.50;100654.56;687049;28;1629;-86
2022/04/12 01:23:22;;;;;;;10.35;7.05;;;;;;;7.99;47.80;100637.03;687967;28;952;-86
2022/04/12 01:24:04;;;;;;;9.32;6.88;;;;;;;8.04;47.59;100651.09;688865;28;938;-86
2022/04/12 01:24:25;;;;;;;7.45;6.40;;;;;;;8.00;47.30;100644.00;685226;28;1093;-87
2022/04/12 01:24:46;;;;;;;7.72;6.55;;;;;;;7.97;47.89;100644.75;685350;28;1366;-86
2022/04/12 01:25:07;;;;;;;8.10;6.63;;;;;;;7.99;47.75;100642.22;690860;28;1030;-86
2022/04/12 01:25:28;;;;;;;8.73;7.05;;;;;;;7.89;47.59;100621.13;693427;28;1102;-85
2022/04/12 01:25:49;;;;;;;9.00;7.10;;;;;;;8.00;47.75;100639.69;691192;28;1087;-86
2022/04/12 01:26:10;;;;;;;8.13;6.80;;;;;;;7.94;47.43;100629.94;690749;28;1365;-86
2022/04/12 01:26:32;;;;;;;7.05;6.18;;;;;;;7.94;47.73;100632.53;693584;28;1270;-86
2022/04/12 01:26:53;;;;;;;6.40;5.80;;;;;;;7.97;47.68;100642.16;690647;28;1416;-85
2022/04/12 01:27:13;;;;;;;6.67;5.97;;;;;;;7.93;47.56;100633.38;693663;28;1017;-87
2022/04/12 01:27:34;;;;;;;7.00;6.30;;;;;;;7.95;47.43;100636.03;688005;28;1516;-86
2022/04/12 01:28:06;;;;;;;7.63;6.80;;;;;;;7.93;47.65;100638.56;682826;29;1210;-87
2022/04/12 01:28:26;;;;;;;7.57;6.65;;;;;;;7.85;47.81;100627.00;683758;28;1532;-85
2022/04/12 01:28:47;;;;;;;8.13;6.90;;;;;;;7.91;47.98;100634.13;685301;28;1116;-85
2022/04/12 01:29:08;;;;;;;7.80;7.00;;;;;;;7.91;47.90;100639.34;688078;28;1307;-85
2022/04/12 01:29:34;;;;;;;7.30;6.60;;;;;;;7.84;47.83;100633.03;687779;28;1075;-86
2022/04/12 01:29:57;;;;;;;7.35;6.20;;;;;;;7.89;47.72;100641.91;690454;28;1361;-86
2022/04/12 01:30:17;;;;;;;8.85;6.47;;;;;;;7.86;47.89;100639.16;687982;28;1168;-86
2022/04/12 01:30:39;;;;;;;8.98;6.25;;;;;;;7.82;47.92;100632.09;685510;28;1007;-86
2022/04/12 01:30:59;;;;;;;9.07;6.22;;;;;;;7.81;47.72;100632.94;688018;28;1115;-86
2022/04/12 01:31:20;;;;;;;7.90;6.50;;;;;;;7.87;47.52;100645.25;685264;28;1171;-86
2022/04/12 01:31:40;;;;;;;7.57;6.50;;;;;;;7.88;48.11;100645.34;685491;28;776;-86
2022/04/12 01:32:07;;;;;;;7.10;6.38;;;;;;;7.81;47.68;100638.13;688001;28;1747;-86
2022/04/12 01:32:28;;;;;;;7.10;5.97;;;;;;;7.84;47.95;100638.22;688207;28;1284;-86
2022/04/12 01:32:48;;;;;;;8.07;6.10;;;;;;;7.73;47.63;100626.56;690839;28;1161;-86
2022/04/12 01:33:09;;;;;;;7.90;6.20;;;;;;;7.74;48.10;100631.81;688013;28;949;-86
2022/04/12 01:33:30;;;;;;;8.90;6.70;;;;;;;7.78;47.97;100632.81;688079;28;991;-86
2022/04/12 01:33:52;;;;;;;7.40;6.60;;;;;;;7.72;47.98;100627.38;690612;28;1706;-86
2022/04/12 01:34:12;;;;;;;7.82;6.90;;;;;;;7.84;47.89;100647.75;687930;28;1262;-86
2022/04/12 01:34:34;;;;;;;7.33;6.53;;;;;;;7.80;48.32;100641.56;682727;29;1216;-86
2022/04/12 01:34:54;;;;;;;8.00;6.80;;;;;;;7.83;48.13;100641.66;688009;28;1902;-86
2022/04/12 01:35:15;;;;;;;7.63;6.80;;;;;;;7.81;47.73;100631.22;690767;28;1145;-86
2022/04/12 01:35:36;;;;;;;9.87;6.97;;;;;;;7.84;47.94;100633.03;688077;28;1146;-86
2022/04/12 01:35:56;;;;;;;9.23;6.72;;;;;;;7.83;48.13;100631.28;688107;28;1127;-86
2022/04/12 01:36:24;;;;;;;9.60;6.80;;;;;;;7.77;47.94;100612.84;685480;28;1964;-86
2022/04/12 01:36:45;;;;;;;7.80;6.90;;;;;;;7.81;48.19;100628.59;693516;28;867;-86
2022/04/12 01:37:07;;;;;;;8.07;6.95;;;;;;;7.87;48.11;100630.53;696352;28;1159;-86
2022/04/12 01:37:28;;;;;;;8.27;7.10;;;;;;;7.83;47.43;100620.88;690306;28;1372;-86
2022/04/12 01:37:49;;;;;;;9.05;7.10;;;;;;;7.81;47.74;100622.56;687914;28;1456;-85
2022/04/12 01:38:10;;;;;;;8.80;6.90;;;;;;;7.84;47.93;100627.84;690025;28;1572;-86
2022/04/12 01:38:30;;;;;;;8.48;6.70;;;;;;;7.84;48.16;100621.78;687959;28;1059;-86
2022/04/12 01:38:51;;;;;;;9.07;6.77;;;;;;;7.90;47.90;100632.38;685229;28;1014;-86
2022/04/12 01:39:12;;;;;;;9.93;6.83;;;;;;;7.80;48.02;100610.38;687982;28;1306;-86
2022/04/12 01:39:32;;;;;;;9.50;6.65;;;;;;;7.89;48.00;100625.41;687440;28;1268;-86
2022/04/12 01:39:53;;;;;;;9.47;6.60;;;;;;;7.86;48.07;100625.31;690660;28;985;-86
2022/04/12 01:40:14;;;;;;;7.60;6.28;;;;;;;7.81;48.08;100615.63;690697;28;1048;-86
2022/04/12 01:40:34;;;;;;;7.20;5.80;;;;;;;7.80;47.82;100613.84;687978;28;1616;-86
2022/04/12 01:40:55;;;;;;;8.07;5.90;;;;;;;7.84;48.00;100620.06;689328;28;1171;-86
2022/04/12 01:41:15;;;;;;;8.95;6.28;;;;;;;7.84;47.95;100621.78;690654;28;1303;-86
2022/04/12 01:41:36;;;;;;;10.95;6.82;;;;;;;7.81;47.95;100617.34;688065;28;1054;-85
2022/04/12 01:41:57;;;;;;;10.47;6.73;;;;;;;7.90;47.77;100635.88;688086;28;1281;-86
2022/04/12 01:42:18;;;;;;;10.73;6.70;;;;;;;7.86;47.73;100626.19;687959;28;1206;-86
2022/04/12 01:42:39;;;;;;;9.30;6.80;;;;;;;7.84;47.79;100620.06;693365;28;1257;-85
2022/04/12 01:42:59;;;;;;;8.73;6.65;;;;;;;7.80;47.96;100610.38;690753;28;1156;-86
2022/04/12 01:43:20;;;;;;;8.87;7.00;;;;;;;7.91;47.57;100624.66;687813;28;1322;-86
2022/04/12 01:43:40;;;;;;;8.85;7.05;;;;;;;7.80;47.82;100605.19;690742;28;1367;-86
2022/04/12 01:44:01;;;;;;;8.60;7.10;;;;;;;7.86;48.31;100615.78;693466;28;1115;-86
2022/04/12 01:44:22;;;;;;;8.45;6.40;;;;;;;7.85;48.04;100619.22;690202;28;1445;-86
2022/04/12 01:44:42;;;;;;;10.68;6.90;;;;;;;7.86;48.16;100614.91;685246;28;1225;-86
2022/04/12 01:45:03;;;;;;;10.57;6.80;;;;;;;7.83;47.66;100610.50;681857;28;1300;-85
2022/04/12 01:45:26;;;;;;;10.07;7.18;;;;;;;7.84;48.05;100609.66;688226;28;1005;-86
2022/04/12 01:45:47;;;;;;;9.45;6.70;;;;;;;7.86;48.31;100618.38;690899;28;1526;-85
2022/04/12 01:46:07;;;;;;;10.70;7.00;;;;;;;7.89;47.76;100630.59;693482;28;1267;-86